Time;durP1;ratioP1;P1;durP2;ratioP2;P2;SDS_P1;SDS_P2;PMS_P1;PMS_P2;Temp;Humidity;BMP_temperature;BMP_pressure;BME280_temperature;BME280_humidity;BME280_pressure;Samples;Min_cycle;Max_cycle;Signal;HPM_P1;HPM_P2
2022/01/03 00:02:13;;;;;;;47.85;28.25;;;12.60;60.80;;;;;;5094365;28;19903;-94
2022/01/03 00:04:39;;;;;;;52.55;30.00;;;12.20;62.30;;;;;;5070839;28;20131;-94
2022/01/03 00:07:05;;;;;;;64.20;34.70;;;12.00;63.40;;;;;;5097224;28;20020;-93
2022/01/03 00:09:32;;;;;;;58.03;31.20;;;12.20;62.60;;;;;;5079257;28;20031;-92
2022/01/03 00:11:58;;;;;;;132.75;42.03;;;12.20;61.00;;;;;;5083913;28;20025;-92
2022/01/03 00:14:28;;;;;;;79.90;32.40;;;12.20;60.30;;;;;;5060630;28;20036;-86
2022/01/03 00:16:53;;;;;;;177.50;43.53;;;12.10;60.60;;;;;;5072614;28;20723;-90
2022/01/03 00:19:19;;;;;;;137.40;42.17;;;11.70;61.40;;;;;;5078603;28;20032;-94
2022/01/03 00:21:52;;;;;;;100.85;33.85;;;11.90;61.10;;;;;;5092517;28;20020;-93
2022/01/03 00:24:34;;;;;;;131.93;41.00;;;11.90;60.80;;;;;;5078920;28;20535;-90
2022/01/03 00:27:04;;;;;;;94.15;38.13;;;12.10;60.40;;;;;;5095254;28;20027;-94
2022/01/03 00:29:43;;;;;;;75.53;34.42;;;12.00;61.80;;;;;;5079192;28;20012;-87
2022/01/03 00:32:09;;;;;;;68.97;31.75;;;12.00;60.60;;;;;;5085414;28;20405;-91
2022/01/03 00:34:37;;;;;;;77.35;32.45;;;11.80;60.20;;;;;;5078591;28;20097;-94
2022/01/03 00:37:06;;;;;;;58.22;27.95;;;11.30;60.80;;;;;;5076754;28;20111;-93
2022/01/03 00:39:32;;;;;;;56.53;29.02;;;11.20;62.10;;;;;;5059237;28;20023;-93
2022/01/03 00:41:58;;;;;;;126.40;44.63;;;11.00;63.90;;;;;;5066907;28;20016;-92
2022/01/03 00:44:25;;;;;;;138.40;50.65;;;10.90;65.80;;;;;;5094856;28;20059;-91
2022/01/03 00:46:53;;;;;;;49.28;28.50;;;11.30;64.20;;;;;;5084799;28;20035;-91
2022/01/03 00:49:19;;;;;;;214.65;49.20;;;11.40;64.60;;;;;;5078191;28;20069;-85
2022/01/03 00:51:45;;;;;;;151.65;42.30;;;11.30;65.00;;;;;;5071876;28;20024;-94
2022/01/03 00:54:13;;;;;;;206.15;52.92;;;11.70;64.80;;;;;;5058266;28;20085;-94
2022/01/03 00:56:47;;;;;;;104.80;40.05;;;12.20;64.00;;;;;;5058169;28;20028;-91
2022/01/03 00:59:24;;;;;;;60.45;31.23;;;12.50;63.30;;;;;;5058216;28;20025;-92
2022/01/03 01:01:52;;;;;;;97.95;33.55;;;12.70;62.40;;;;;;5082197;28;20028;-91
2022/01/03 01:04:19;;;;;;;351.88;58.38;;;12.70;62.60;;;;;;5078280;28;20028;-92
2022/01/03 01:06:47;;;;;;;318.05;51.70;;;12.90;62.20;;;;;;5095580;28;20020;-93
2022/01/03 01:09:14;;;;;;;133.50;38.03;;;13.00;61.80;;;;;;5078743;28;20371;-91
2022/01/03 01:11:44;;;;;;;302.55;51.30;;;13.20;61.30;;;;;;5065493;28;20027;-92
2022/01/03 01:14:13;;;;;;;259.25;39.28;;;12.90;62.20;;;;;;5095719;28;20015;-87
2022/01/03 01:16:41;;;;;;;120.88;31.33;;;12.80;61.50;;;;;;5094259;28;20028;-92
2022/01/03 01:19:10;;;;;;;178.90;34.83;;;12.50;61.40;;;;;;5077376;28;20028;-93
2022/01/03 01:21:36;;;;;;;297.30;49.15;;;12.40;61.60;;;;;;5070623;28;20107;-91
2022/01/03 01:24:02;;;;;;;125.38;33.53;;;12.40;61.40;;;;;;5063991;28;20120;-93
2022/01/03 01:29:12;;;;;;;118.43;33.80;;;12.70;61.20;;;;;;5094245;28;20030;-93
2022/01/03 01:31:45;;;;;;;94.45;30.13;;;12.30;61.80;;;;;;5067555;28;20024;-93
2022/01/03 01:34:22;;;;;;;59.95;24.88;;;12.20;62.20;;;;;;5057491;28;20090;-93
2022/01/03 01:36:52;;;;;;;84.32;25.30;;;11.90;62.60;;;;;;5057591;28;20043;-92
2022/01/03 01:39:22;;;;;;;70.25;24.55;;;12.00;62.60;;;;;;5057473;28;20016;-91
2022/01/03 01:41:58;;;;;;;202.10;36.13;;;12.10;62.80;;;;;;5068587;28;20059;-94
2022/01/03 01:44:25;;;;;;;74.65;25.45;;;12.10;63.30;;;;;;5093505;28;20063;-93
2022/01/03 01:46:53;;;;;;;174.15;31.42;;;12.10;62.30;;;;;;5068639;28;20056;-92
2022/01/03 01:49:23;;;;;;;78.20;23.58;;;12.20;62.00;;;;;;5071492;28;20012;-92
2022/01/03 01:51:57;;;;;;;53.50;23.70;;;12.20;61.80;;;;;;5076462;28;20055;-92
2022/01/03 01:54:32;;;;;;;145.55;31.90;;;12.00;62.20;;;;;;5077019;28;20032;-92
2022/01/03 01:57:06;;;;;;;216.60;39.08;;;11.90;62.90;;;;;;5076947;28;20471;-92
2022/01/03 01:59:53;;;;;;;72.93;27.00;;;11.90;62.60;;;;;;5076374;28;20024;-92
2022/01/03 02:02:37;;;;;;;79.45;26.88;;;11.90;62.70;;;;;;5087450;28;20385;-91
2022/01/03 02:05:38;;;;;;;129.35;34.85;;;11.70;62.70;;;;;;5063069;28;20146;-92
2022/01/03 02:08:25;;;;;;;75.20;27.65;;;11.40;63.20;;;;;;4996653;28;20144;-90
2022/01/03 02:11:16;;;;;;;85.38;26.73;;;11.40;63.60;;;;;;4997890;28;20049;-91
2022/01/03 02:13:44;;;;;;;46.47;23.65;;;11.60;63.40;;;;;;5013000;28;20060;-90
2022/01/03 02:16:11;;;;;;;61.20;26.48;;;11.40;62.90;;;;;;5016916;28;20045;-93
2022/01/03 02:18:36;;;;;;;42.75;24.35;;;10.90;65.20;;;;;;4996695;28;20030;-89
2022/01/03 02:21:03;;;;;;;35.95;22.33;;;10.90;65.40;;;;;;5017639;28;20079;-92
2022/01/03 02:23:29;;;;;;;40.17;23.60;;;11.10;65.40;;;;;;4998168;28;20040;-92
2022/01/03 02:25:55;;;;;;;36.60;22.95;;;11.10;65.50;;;;;;4996908;28;20034;-93
2022/01/03 02:28:22;;;;;;;40.20;23.23;;;11.00;66.60;;;;;;4997178;28;20022;-94
2022/01/03 02:30:49;;;;;;;35.67;21.08;;;11.10;67.20;;;;;;5001217;28;20065;-90
2022/01/03 02:33:15;;;;;;;31.92;20.90;;;11.30;67.70;;;;;;5000742;28;20091;-93
2022/01/03 02:35:43;;;;;;;32.67;20.15;;;11.50;67.70;;;;;;5000293;28;20030;-92
2022/01/03 02:38:09;;;;;;;31.00;20.30;;;11.70;68.20;;;;;;5016389;28;20131;-94
2022/01/03 02:40:35;;;;;;;29.98;19.40;;;12.00;68.20;;;;;;4998402;28;20836;-88
2022/01/03 02:43:02;;;;;;;28.25;18.17;;;12.00;68.40;;;;;;5017297;28;20036;-93
2022/01/03 02:45:28;;;;;;;27.08;16.27;;;12.30;68.00;;;;;;5086862;28;20363;-92
2022/01/03 02:48:00;;;;;;;24.15;16.42;;;12.70;67.60;;;;;;5065402;28;20020;-86
2022/01/03 02:50:29;;;;;;;30.30;17.90;;;13.00;66.90;;;;;;5063371;28;20028;-90
2022/01/03 02:52:55;;;;;;;29.25;19.60;;;13.20;65.10;;;;;;5063412;28;20020;-94
2022/01/03 02:55:21;;;;;;;32.72;21.23;;;13.20;63.20;;;;;;5076348;28;20065;-91
2022/01/03 02:57:49;;;;;;;32.20;21.65;;;12.50;61.30;;;;;;5076262;28;20111;-92
2022/01/03 03:00:22;;;;;;;42.72;24.48;;;12.10;62.10;;;;;;5076164;28;20374;-92
2022/01/03 03:02:48;;;;;;;37.10;21.92;;;11.80;62.60;;;;;;5088682;28;20031;-93
2022/01/03 03:05:18;;;;;;;33.13;21.30;;;11.90;62.20;;;;;;5057536;28;20028;-90
2022/01/03 03:07:45;;;;;;;37.30;24.27;;;11.50;63.60;;;;;;5076576;28;20359;-94
2022/01/03 03:10:15;;;;;;;33.40;21.90;;;11.30;64.40;;;;;;5076786;28;20028;-93
2022/01/03 03:12:41;;;;;;;;;;;11.20;65.70;;;;;;5070636;28;20020;-95
2022/01/03 03:15:11;;;;;;;36.15;22.38;;;10.80;66.00;;;;;;5085262;28;19916;-90
2022/01/03 03:17:39;;;;;;;34.08;21.10;;;10.40;67.30;;;;;;5081670;28;20359;-88
2022/01/03 03:20:26;;;;;;;38.95;23.55;;;10.20;67.40;;;;;;5076724;28;20031;-94
2022/01/03 03:22:52;;;;;;;42.55;25.27;;;10.20;68.20;;;;;;5082819;28;20042;-93
2022/01/03 03:25:22;;;;;;;36.65;23.00;;;10.80;66.30;;;;;;5062121;28;20098;-94
2022/01/03 03:27:52;;;;;;;33.30;21.60;;;11.00;65.80;;;;;;5094041;28;20023;-94
2022/01/03 03:30:39;;;;;;;39.72;24.27;;;11.50;64.00;;;;;;5076468;28;20077;-94
2022/01/03 03:33:11;;;;;;;41.47;23.70;;;11.80;63.90;;;;;;5096427;28;20043;-95
2022/01/03 03:35:37;;;;;;;38.63;23.23;;;11.80;62.60;;;;;;5062897;28;20036;-94
2022/01/03 03:38:03;;;;;;;31.05;20.20;;;11.70;63.40;;;;;;5059927;28;20024;-94
2022/01/03 03:40:29;;;;;;;29.05;18.67;;;11.90;63.10;;;;;;5080357;28;20087;-95
2022/01/03 03:42:55;;;;;;;32.53;19.58;;;12.20;64.00;;;;;;5073929;28;20494;-94
2022/01/03 03:45:21;;;;;;;26.02;17.33;;;12.30;65.40;;;;;;5070975;28;20110;-94
2022/01/03 03:47:47;;;;;;;30.08;18.58;;;12.30;65.70;;;;;;5062567;28;20032;-91
2022/01/03 03:50:13;;;;;;;29.17;18.60;;;12.10;68.20;;;;;;5077736;28;20074;-92
2022/01/03 03:52:39;;;;;;;27.88;17.55;;;12.20;67.00;;;;;;5095871;28;20090;-89
2022/01/03 03:55:08;;;;;;;28.33;19.15;;;12.30;67.10;;;;;;5077988;28;20597;-90
2022/01/03 03:57:33;;;;;;;30.02;17.20;;;12.70;67.10;;;;;;5073496;28;20353;-93
2022/01/03 03:59:59;;;;;;;25.77;17.58;;;12.70;65.40;;;;;;5091562;28;20031;-89
2022/01/03 04:02:25;;;;;;;25.52;16.90;;;12.60;66.70;;;;;;5060075;28;20028;-92
2022/01/03 04:04:51;;;;;;;24.30;15.93;;;12.80;65.70;;;;;;5076948;28;20031;-92
2022/01/03 04:07:17;;;;;;;25.27;15.63;;;12.80;65.80;;;;;;5084524;28;20048;-92
2022/01/03 04:09:43;;;;;;;24.13;15.63;;;12.90;65.70;;;;;;5059003;28;20021;-91
2022/01/03 04:12:09;;;;;;;22.98;14.27;;;12.70;66.10;;;;;;5059252;28;20028;-87
2022/01/03 04:14:37;;;;;;;22.50;14.43;;;12.60;66.20;;;;;;5077462;28;20085;-91
2022/01/03 04:17:05;;;;;;;22.80;13.68;;;12.70;66.20;;;;;;5070808;28;20021;-93
2022/01/03 04:19:30;;;;;;;20.13;13.35;;;12.80;66.20;;;;;;5078133;28;20099;-92
2022/01/03 04:21:56;;;;;;;20.17;13.13;;;13.30;64.40;;;;;;5077636;28;20434;-88
2022/01/03 04:24:22;;;;;;;23.95;14.95;;;13.50;64.60;;;;;;5077531;28;20036;-92
2022/01/03 04:26:49;;;;;;;24.30;15.18;;;13.10;63.00;;;;;;5077702;28;20362;-92
2022/01/03 04:29:15;;;;;;;21.88;15.10;;;12.30;64.60;;;;;;5078887;28;20027;-91
2022/01/03 04:31:41;;;;;;;25.27;16.08;;;12.10;65.90;;;;;;5079462;28;20024;-89
2022/01/03 04:34:08;;;;;;;28.42;17.63;;;12.40;65.50;;;;;;5077271;28;20097;-91
2022/01/03 04:36:34;;;;;;;27.33;16.85;;;12.60;63.90;;;;;;5085764;28;20017;-93
2022/01/03 04:38:59;;;;;;;34.10;20.05;;;12.30;63.60;;;;;;5077195;28;20030;-88
2022/01/03 04:41:25;;;;;;;29.20;17.48;;;11.90;64.60;;;;;;5058410;28;20062;-92
2022/01/03 04:43:51;;;;;;;31.60;18.45;;;11.60;65.80;;;;;;5061194;28;20371;-93
2022/01/03 04:46:17;;;;;;;27.58;15.90;;;10.90;67.60;;;;;;5044020;28;20024;-83
2022/01/03 04:48:43;;;;;;;26.77;17.48;;;11.00;68.60;;;;;;5063092;28;20020;-92
2022/01/03 04:51:09;;;;;;;26.40;15.48;;;11.10;68.40;;;;;;5078136;28;20027;-91
2022/01/03 04:53:39;;;;;;;21.23;13.52;;;11.30;68.10;;;;;;5076702;28;20122;-86
2022/01/03 04:56:27;;;;;;;24.30;14.85;;;11.60;67.70;;;;;;5091123;28;20086;-92
2022/01/03 04:58:54;;;;;;;20.85;12.93;;;11.80;67.80;;;;;;5075871;28;20024;-87
2022/01/03 05:01:20;;;;;;;23.15;13.60;;;11.80;67.30;;;;;;5067056;28;20028;-89
2022/01/03 05:03:46;;;;;;;21.05;12.98;;;12.00;66.60;;;;;;5075884;28;20459;-92
2022/01/03 05:06:12;;;;;;;24.70;14.68;;;12.20;66.40;;;;;;5074206;28;20024;-93
2022/01/03 05:08:38;;;;;;;29.90;17.45;;;12.30;64.50;;;;;;5076008;28;20019;-94
2022/01/03 05:11:04;;;;;;;31.27;17.98;;;11.50;65.80;;;;;;5072551;28;20024;-94
2022/01/03 05:13:31;;;;;;;26.77;16.15;;;11.40;65.30;;;;;;5077495;28;20070;-95
2022/01/03 05:15:58;;;;;;;32.00;19.65;;;11.70;64.80;;;;;;5063413;28;20036;-91
2022/01/03 05:18:24;;;;;;;28.92;18.20;;;11.80;63.50;;;;;;5058142;28;20017;-94
2022/01/03 05:20:50;;;;;;;27.02;17.25;;;11.90;62.70;;;;;;5083009;28;20039;-92
2022/01/03 05:23:16;;;;;;;30.77;19.10;;;11.60;63.00;;;;;;5095300;28;20086;-93
2022/01/03 05:25:41;;;;;;;25.70;17.63;;;11.30;64.10;;;;;;5066000;28;20036;-92
2022/01/03 05:28:07;;;;;;;27.63;18.10;;;11.00;64.70;;;;;;5058634;28;20020;-90
2022/01/03 05:30:33;;;;;;;27.52;17.90;;;10.80;65.10;;;;;;5072165;28;20020;-93
2022/01/03 05:32:59;;;;;;;26.75;17.33;;;11.00;64.40;;;;;;5072872;28;20085;-89
2022/01/03 05:35:25;;;;;;;27.58;18.52;;;11.20;64.50;;;;;;5065391;28;20023;-90
2022/01/03 05:37:51;;;;;;;30.75;19.75;;;10.50;65.30;;;;;;5079209;28;20055;-87
2022/01/03 05:40:17;;;;;;;33.55;21.00;;;10.50;67.10;;;;;;5077207;28;20032;-91
2022/01/03 05:42:44;;;;;;;32.50;20.50;;;10.50;67.00;;;;;;5077491;28;20024;-91
2022/01/03 05:45:10;;;;;;;35.03;22.17;;;10.50;67.10;;;;;;5076868;28;20016;-89
2022/01/03 05:47:35;;;;;;;35.95;22.98;;;10.80;66.20;;;;;;5095706;28;20058;-93
2022/01/03 05:50:02;;;;;;;34.97;21.50;;;10.90;65.80;;;;;;5076839;28;20467;-83
2022/01/03 05:52:27;;;;;;;31.08;21.52;;;11.10;65.20;;;;;;5058909;28;20051;-92
2022/01/03 05:54:53;;;;;;;41.83;22.23;;;11.10;64.80;;;;;;5085517;28;20111;-86
2022/01/03 05:57:19;;;;;;;34.13;21.50;;;11.20;64.70;;;;;;5057053;28;20452;-86
2022/01/03 05:59:45;;;;;;;41.53;24.38;;;11.30;64.80;;;;;;5056473;28;20455;-92
2022/01/03 06:02:11;;;;;;;37.55;22.02;;;11.60;64.50;;;;;;5077368;28;20089;-93
2022/01/03 06:07:09;;;;;;;34.38;21.50;;;12.10;62.80;;;;;;5083800;28;20016;-91
2022/01/03 06:09:35;;;;;;;40.78;22.58;;;12.20;63.40;;;;;;5074178;28;20047;-91
2022/01/03 06:12:02;;;;;;;26.10;15.40;;;11.90;64.50;;;;;;5072004;28;20028;-91
2022/01/03 06:14:28;;;;;;;21.80;13.55;;;11.80;66.50;;;;;;5094461;28;20068;-86
2022/01/03 06:16:55;;;;;;;21.27;13.55;;;12.00;66.80;;;;;;5091431;28;20108;-89
2022/01/03 06:19:21;;;;;;;21.90;14.27;;;12.00;66.50;;;;;;5056481;28;20020;-89
2022/01/03 06:21:47;;;;;;;21.80;14.05;;;11.90;67.20;;;;;;5068196;28;20377;-86
2022/01/03 06:24:15;;;;;;;20.92;13.40;;;11.60;68.10;;;;;;5079459;28;20054;-88
2022/01/03 06:26:43;;;;;;;19.92;13.77;;;11.60;68.70;;;;;;5056520;28;20032;-87
2022/01/03 06:29:10;;;;;;;21.73;14.48;;;11.70;69.00;;;;;;5055692;28;20021;-88
2022/01/03 06:31:36;;;;;;;21.10;13.32;;;12.10;67.70;;;;;;5055719;28;20032;-87
2022/01/03 06:34:02;;;;;;;21.25;13.73;;;12.20;66.90;;;;;;5055445;28;20037;-88
2022/01/03 06:36:28;;;;;;;19.58;13.38;;;11.90;68.30;;;;;;5055457;28;20031;-83
2022/01/03 06:38:55;;;;;;;20.58;13.05;;;11.80;68.40;;;;;;5073407;28;20020;-87
2022/01/03 06:41:20;;;;;;;20.30;13.48;;;11.60;69.00;;;;;;5055428;28;20363;-82
2022/01/03 06:43:46;;;;;;;20.88;12.85;;;11.40;69.60;;;;;;5056601;28;20460;-84
2022/01/03 06:46:12;;;;;;;17.70;12.23;;;11.40;69.70;;;;;;5056393;28;20024;-88
2022/01/03 06:48:38;;;;;;;18.00;12.80;;;11.50;69.60;;;;;;5059559;28;20023;-89
2022/01/03 06:51:04;;;;;;;17.70;11.23;;;11.90;68.20;;;;;;5057527;28;20034;-87
2022/01/03 06:53:30;;;;;;;17.55;10.80;;;12.30;66.40;;;;;;5055543;28;20020;-91
2022/01/03 06:55:56;;;;;;;12.88;8.77;;;12.90;65.40;;;;;;5054730;28;20360;-83
2022/01/03 06:58:21;;;;;;;13.15;8.82;;;13.60;63.30;;;;;;5072901;28;20101;-87
2022/01/03 07:00:47;;;;;;;13.75;7.93;;;13.90;62.30;;;;;;5055796;28;20028;-85
2022/01/03 07:03:13;;;;;;;13.93;8.32;;;14.00;61.70;;;;;;5055243;28;20467;-84
2022/01/03 07:05:38;;;;;;;12.07;7.85;;;14.10;61.00;;;;;;5073242;28;20017;-83
2022/01/03 07:08:05;;;;;;;13.82;7.80;;;14.30;60.70;;;;;;5057883;28;20501;-88
2022/01/03 07:10:30;;;;;;;12.55;8.13;;;14.70;60.00;;;;;;5076833;28;20146;-90
2022/01/03 07:12:59;;;;;;;13.23;9.02;;;15.10;59.10;;;;;;5059264;28;20166;-89
2022/01/03 07:20:53;;;;;;;16.48;10.55;;;15.40;58.00;;;;;;5077282;28;20116;-86
2022/01/03 07:23:19;;;;;;;15.48;10.25;;;15.30;58.40;;;;;;5059243;28;20020;-91
2022/01/03 07:25:46;;;;;;;10.25;6.72;;;15.70;57.80;;;;;;5076507;28;20070;-83
2022/01/03 07:28:16;;;;;;;15.48;9.20;;;15.50;57.70;;;;;;5076599;28;20044;-85
2022/01/03 07:30:42;;;;;;;15.68;10.98;;;15.60;58.10;;;;;;5058930;28;20360;-86
2022/01/03 07:33:08;;;;;;;10.75;6.40;;;15.60;57.30;;;;;;5055019;28;20514;-89
2022/01/03 07:35:34;;;;;;;13.35;6.97;;;15.30;57.60;;;;;;5055064;28;20357;-92
2022/01/03 07:38:01;;;;;;;11.20;6.45;;;15.50;57.80;;;;;;5055325;28;20075;-86
2022/01/03 07:40:27;;;;;;;8.05;5.25;;;15.40;57.70;;;;;;5055255;28;20029;-87
2022/01/03 07:42:52;;;;;;;9.10;4.95;;;15.50;57.40;;;;;;5055123;28;20053;-85
2022/01/03 07:45:19;;;;;;;10.85;5.60;;;15.70;56.70;;;;;;5056647;28;20416;-94
2022/01/03 07:47:45;;;;;;;6.97;4.60;;;16.00;56.40;;;;;;5055329;28;20021;-87
2022/01/03 07:50:11;;;;;;;6.93;4.40;;;15.90;57.00;;;;;;5055008;28;20029;-89
2022/01/03 07:52:38;;;;;;;8.27;4.50;;;15.90;57.30;;;;;;5056144;28;20050;-91
2022/01/03 07:55:05;;;;;;;6.60;3.65;;;16.00;56.90;;;;;;5054859;28;20025;-87
2022/01/03 07:57:32;;;;;;;5.90;3.58;;;16.30;56.00;;;;;;5055039;28;20017;-85
2022/01/03 07:59:58;;;;;;;5.88;3.20;;;16.30;56.10;;;;;;5056350;28;20091;-86
2022/01/03 08:02:24;;;;;;;6.18;3.00;;;16.40;56.00;;;;;;5055355;28;20025;-89
2022/01/03 08:04:53;;;;;;;5.32;3.03;;;16.10;56.00;;;;;;5056047;28;20021;-92
2022/01/03 08:07:19;;;;;;;5.70;3.55;;;16.40;55.80;;;;;;5055085;28;20471;-89
2022/01/03 08:09:47;;;;;;;5.88;3.22;;;16.60;55.30;;;;;;5054574;28;20017;-92
2022/01/03 08:12:12;;;;;;;7.10;3.35;;;16.60;55.10;;;;;;5054876;28;20092;-92
2022/01/03 08:14:38;;;;;;;5.22;2.88;;;17.10;54.80;;;;;;5055272;28;20048;-86
2022/01/03 08:17:05;;;;;;;5.63;2.80;;;16.90;54.60;;;;;;5055049;28;20032;-88
2022/01/03 08:19:31;;;;;;;5.55;2.65;;;16.40;54.70;;;;;;5055743;28;20108;-92
2022/01/03 08:21:57;;;;;;;6.07;2.70;;;16.30;55.70;;;;;;5055766;28;20092;-88
2022/01/03 08:24:22;;;;;;;5.75;2.80;;;16.50;55.70;;;;;;5055961;28;20032;-90
2022/01/03 08:26:49;;;;;;;6.70;2.72;;;16.40;55.20;;;;;;5054515;28;20024;-88
2022/01/03 08:29:15;;;;;;;5.53;2.85;;;16.40;55.20;;;;;;5055912;28;20017;-87
2022/01/03 08:31:41;;;;;;;5.32;2.67;;;16.30;56.00;;;;;;5055998;28;20051;-84
2022/01/03 08:34:09;;;;;;;9.77;3.53;;;16.40;56.00;;;;;;5054580;28;20078;-90
2022/01/03 08:36:35;;;;;;;4.40;2.38;;;16.40;56.90;;;;;;5055245;28;20033;-83
2022/01/03 08:39:01;;;;;;;5.30;2.30;;;16.30;55.70;;;;;;5054568;28;20108;-90
2022/01/03 08:41:27;;;;;;;6.07;3.42;;;16.40;55.60;;;;;;5054737;28;20088;-87
2022/01/03 08:43:53;;;;;;;6.05;3.53;;;16.60;55.70;;;;;;5055400;28;20515;-86
2022/01/03 08:46:19;;;;;;;13.35;8.48;;;16.60;55.60;;;;;;5054716;28;20035;-93
2022/01/03 08:48:45;;;;;;;7.97;5.10;;;16.60;55.40;;;;;;5054346;28;20070;-89
2022/01/03 08:51:11;;;;;;;7.75;5.15;;;16.60;55.80;;;;;;5055527;28;20013;-83
2022/01/03 08:53:37;;;;;;;12.25;7.68;;;16.40;56.30;;;;;;5055608;28;20021;-84
2022/01/03 08:56:04;;;;;;;9.43;4.25;;;16.50;56.20;;;;;;5054754;28;20448;-86
2022/01/03 08:58:30;;;;;;;5.82;3.15;;;16.00;56.50;;;;;;5054574;28;20017;-83
2022/01/03 09:00:56;;;;;;;5.75;3.22;;;16.00;57.00;;;;;;5055355;28;20104;-85
2022/01/03 09:03:22;;;;;;;9.80;3.88;;;16.00;56.70;;;;;;5055447;28;20100;-87
2022/01/03 09:05:49;;;;;;;6.57;2.35;;;16.20;57.20;;;;;;5054055;28;20017;-90
2022/01/03 09:08:16;;;;;;;5.68;2.97;;;16.30;56.10;;;;;;5053914;28;20017;-86
2022/01/03 09:10:43;;;;;;;9.88;3.00;;;16.40;56.80;;;;;;5053882;28;20460;-90
2022/01/03 09:13:08;;;;;;;9.52;2.58;;;16.70;56.20;;;;;;5053878;28;20023;-84
2022/01/03 09:15:37;;;;;;;4.63;2.30;;;16.80;56.00;;;;;;5053802;28;20033;-88
2022/01/03 09:18:03;;;;;;;4.50;2.20;;;16.60;55.60;;;;;;5055677;28;20021;-92
2022/01/03 09:20:29;;;;;;;4.78;2.70;;;16.10;56.40;;;;;;5056056;28;20025;-90
2022/01/03 09:23:05;;;;;;;3.85;2.40;;;15.90;57.60;;;;;;5054170;28;20043;-84
2022/01/03 09:30:52;;;;;;;4.15;2.35;;;16.00;56.70;;;;;;5054333;28;20123;-92
2022/01/03 09:33:19;;;;;;;5.10;2.50;;;16.30;56.20;;;;;;5053539;28;20498;-82
2022/01/03 09:35:44;;;;;;;4.57;2.88;;;16.40;55.30;;;;;;5054227;28;20032;-88
2022/01/03 09:38:10;;;;;;;3.70;1.85;;;16.50;55.70;;;;;;5055203;28;20019;-82
2022/01/03 09:40:41;;;;;;;4.70;1.95;;;16.20;55.40;;;;;;5053460;28;20025;-88
2022/01/03 09:43:08;;;;;;;;;;;16.10;56.20;;;;;;5053731;28;20016;-86
2022/01/03 09:45:37;;;;;;;5.30;2.20;;;16.30;56.10;;;;;;5054392;28;19901;-83
2022/01/03 09:48:04;;;;;;;4.20;2.38;;;16.30;55.80;;;;;;5053517;28;20420;-94
2022/01/03 09:50:34;;;;;;;3.95;1.80;;;16.40;55.60;;;;;;5053600;28;20086;-88
2022/01/03 09:53:02;;;;;;;4.47;2.00;;;16.30;55.60;;;;;;5054220;28;20013;-89
2022/01/03 09:55:29;;;;;;;3.95;1.77;;;16.50;54.80;;;;;;5053729;28;20356;-86
2022/01/03 09:57:55;;;;;;;3.97;1.75;;;16.40;54.80;;;;;;5054043;28;20021;-93
2022/01/03 10:00:24;;;;;;;4.20;1.90;;;16.30;54.70;;;;;;5053918;28;20098;-85
2022/01/03 10:02:54;;;;;;;4.60;1.90;;;16.30;54.80;;;;;;5053125;28;20024;-87
2022/01/03 10:05:21;;;;;;;3.08;1.50;;;16.40;54.90;;;;;;5053057;28;20024;-84
2022/01/03 10:07:47;;;;;;;4.47;1.90;;;16.50;54.70;;;;;;5052945;28;20033;-90
2022/01/03 10:10:13;;;;;;;4.40;2.15;;;16.60;54.80;;;;;;5053075;28;20028;-83
2022/01/03 10:12:39;;;;;;;3.45;1.75;;;16.80;54.10;;;;;;5053940;28;20039;-86
2022/01/03 10:15:07;;;;;;;4.82;1.90;;;16.90;54.50;;;;;;5053968;28;20055;-82
2022/01/03 10:17:38;;;;;;;3.35;1.80;;;16.70;54.70;;;;;;5053745;28;20079;-86
2022/01/03 10:20:05;;;;;;;;;;;16.50;54.00;;;;;;5055195;28;20099;-85
2022/01/03 10:22:33;;;;;;;2.50;1.20;;;16.50;54.10;;;;;;5053747;28;19900;-83
2022/01/03 10:25:02;;;;;;;2.92;1.35;;;16.40;53.50;;;;;;5054080;28;20419;-88
2022/01/03 10:27:48;;;;;;;2.75;1.20;;;16.90;54.30;;;;;;5054533;28;20021;-88
2022/01/03 10:30:45;;;;;;;4.15;1.20;;;16.90;53.20;;;;;;5052726;28;20460;-82
2022/01/03 10:33:17;;;;;;;2.72;1.20;;;16.90;53.70;;;;;;5053158;28;20128;-81
2022/01/03 10:35:49;;;;;;;4.20;1.50;;;16.60;53.40;;;;;;5052590;28;20357;-89
2022/01/03 10:38:37;;;;;;;9.18;4.28;;;16.50;53.70;;;;;;5054747;28;20062;-91
2022/01/03 10:41:18;;;;;;;4.63;1.80;;;16.40;54.70;;;;;;5053133;28;20169;-87
2022/01/03 10:43:50;;;;;;;4.05;1.30;;;16.10;54.10;;;;;;5059736;28;20027;-89
2022/01/03 10:46:37;;;;;;;3.58;1.38;;;16.00;54.60;;;;;;5059317;28;20017;-85
2022/01/03 10:49:20;;;;;;;5.07;2.10;;;16.20;54.50;;;;;;5060247;28;20142;-89
2022/01/03 10:51:48;;;;;;;3.42;1.17;;;16.50;54.40;;;;;;5061808;28;20032;-91
2022/01/03 10:54:18;;;;;;;3.90;1.75;;;16.50;53.90;;;;;;5061225;28;20017;-89
2022/01/03 10:56:50;;;;;;;4.13;1.60;;;16.60;53.60;;;;;;5058480;28;20017;-93
2022/01/03 10:59:25;;;;;;;3.55;1.58;;;16.40;54.00;;;;;;5059778;28;20025;-92
2022/01/03 11:01:58;;;;;;;3.05;1.48;;;16.20;54.20;;;;;;5056974;28;20029;-94
2022/01/03 11:04:34;;;;;;;3.25;1.50;;;15.90;54.90;;;;;;5058342;28;20067;-93
2022/01/03 11:13:04;;;;;;;3.63;1.35;;;16.00;54.20;;;;;;5058654;28;20088;-90
2022/01/03 11:15:29;;;;;;;2.55;1.30;;;15.60;55.10;;;;;;5056420;28;20039;-92
2022/01/03 11:18:35;;;;;;;5.38;1.38;;;15.60;55.30;;;;;;5056633;28;20021;-87
2022/01/03 11:21:23;;;;;;;5.75;2.50;;;16.00;55.40;;;;;;5046420;28;20111;-84
2022/01/03 11:24:13;;;;;;;3.42;1.58;;;16.20;54.40;;;;;;5058251;28;20333;-92
2022/01/03 11:26:47;;;;;;;4.10;2.30;;;16.30;54.60;;;;;;5056353;28;20482;-88
2022/01/03 11:29:16;;;;;;;3.00;1.20;;;16.50;54.30;;;;;;5056201;28;20810;-87
2022/01/03 11:31:43;;;;;;;2.90;1.40;;;16.70;53.50;;;;;;5056761;28;20040;-95
2022/01/03 11:34:11;;;;;;;3.63;1.40;;;16.50;53.90;;;;;;5072068;28;20048;-83
2022/01/03 11:36:39;;;;;;;10.50;6.22;;;16.30;54.30;;;;;;5077621;28;20062;-85
2022/01/03 11:39:12;;;;;;;4.93;2.90;;;16.30;54.50;;;;;;5060870;28;20025;-93
2022/01/03 11:41:43;;;;;;;3.58;1.80;;;16.00;55.10;;;;;;5061183;28;20020;-90
2022/01/03 11:44:12;;;;;;;4.03;1.60;;;15.90;55.80;;;;;;5061379;28;20154;-82
2022/01/03 11:46:40;;;;;;;4.25;1.90;;;15.90;55.70;;;;;;5079354;28;20013;-86
2022/01/03 11:49:06;;;;;;;3.38;1.83;;;15.70;56.00;;;;;;5061622;28;20016;-95
2022/01/03 11:51:34;;;;;;;2.90;1.30;;;15.90;56.00;;;;;;5078926;28;20023;-96
2022/01/03 11:54:01;;;;;;;2.75;1.40;;;15.80;56.20;;;;;;5078864;28;20020;-87
2022/01/03 11:56:29;;;;;;;3.47;1.52;;;15.80;56.50;;;;;;5077676;28;20035;-96
2022/01/03 12:04:26;;;;;;;6.93;2.80;;;15.80;56.70;;;;;;5080040;28;20059;-94
2022/01/03 12:07:13;;;;;;;5.05;2.20;;;15.60;57.00;;;;;;5060520;28;20029;-85
2022/01/03 12:09:50;;;;;;;4.85;2.00;;;15.50;57.80;;;;;;5078643;28;20464;-87
2022/01/03 12:12:29;;;;;;;3.20;1.73;;;15.50;58.00;;;;;;5061905;28;20081;-93
2022/01/03 12:14:58;;;;;;;4.80;1.70;;;15.50;58.00;;;;;;5060579;28;20047;-94
2022/01/03 12:17:41;;;;;;;3.15;1.55;;;15.60;58.30;;;;;;5059587;28;20417;-89
2022/01/03 12:20:12;;;;;;;4.40;1.92;;;15.70;58.40;;;;;;5060136;28;20116;-88
2022/01/03 12:23:04;;;;;;;;;;;15.50;58.70;;;;;;5060788;28;20017;-93
2022/01/03 12:25:32;;;;;;;4.25;1.60;;;15.70;58.30;;;;;;5056008;28;20251;-88
2022/01/03 12:28:07;;;;;;;4.65;1.90;;;15.70;58.00;;;;;;5059611;28;20025;-85
2022/01/03 12:30:36;;;;;;;3.78;1.95;;;15.70;58.20;;;;;;5059204;28;20013;-89
2022/01/03 12:33:08;;;;;;;3.20;1.63;;;15.70;58.10;;;;;;5077274;28;20115;-90
2022/01/03 12:35:38;;;;;;;4.93;1.60;;;15.80;58.30;;;;;;5076631;28;20040;-94
2022/01/03 12:38:04;;;;;;;;;;;15.70;58.00;;;;;;5060491;28;20023;-95
2022/01/03 12:40:34;;;;;;;3.92;1.75;;;15.90;58.30;;;;;;5059719;28;19900;-87
2022/01/03 12:43:10;;;;;;;3.55;1.77;;;16.20;57.30;;;;;;5060336;28;20059;-93
2022/01/03 12:45:45;;;;;;;4.20;1.83;;;16.10;58.00;;;;;;5059720;28;20024;-93
2022/01/03 12:48:11;;;;;;;3.78;1.80;;;15.90;57.90;;;;;;5058078;28;20059;-92
2022/01/03 12:50:39;;;;;;;3.65;1.70;;;16.10;58.10;;;;;;5058725;28;20120;-87
2022/01/03 12:53:10;;;;;;;4.47;1.50;;;16.40;57.40;;;;;;5076234;28;20104;-91
2022/01/03 12:55:48;;;;;;;5.13;1.90;;;16.30;57.70;;;;;;5058847;28;20036;-86
2022/01/03 12:58:13;;;;;;;3.75;1.73;;;16.40;57.30;;;;;;5060137;28;20013;-94
2022/01/03 13:00:45;;;;;;;5.32;1.98;;;16.30;58.00;;;;;;5058621;28;20028;-83
2022/01/03 13:03:41;;;;;;;4.75;2.08;;;16.10;58.00;;;;;;5076468;28;20119;-88
2022/01/03 13:06:22;;;;;;;4.07;1.60;;;16.20;58.20;;;;;;5058073;28;20051;-88
2022/01/03 13:08:50;;;;;;;4.18;1.70;;;16.20;57.80;;;;;;5058712;28;20028;-87
2022/01/03 13:11:18;;;;;;;3.92;1.50;;;15.90;57.90;;;;;;5058580;28;20033;-89
2022/01/03 13:13:47;;;;;;;3.50;1.50;;;16.20;57.60;;;;;;5059149;28;20021;-88